createdAt,value
2022-09-28T00:01:27.001Z,990.51
2022-09-28T00:07:46.989Z,990.55
2022-09-28T00:14:10.002Z,990.59
2022-09-28T00:20:29.999Z,990.59
2022-09-28T00:26:52.983Z,990.65
2022-09-28T00:33:13.063Z,990.63
2022-09-28T00:39:35.993Z,990.65
2022-09-28T00:45:55.998Z,990.65
2022-09-28T00:52:19.040Z,990.65
2022-09-28T00:58:38.975Z,990.65
2022-09-28T01:05:02.007Z,990.61
2022-09-28T01:11:21.995Z,990.53
2022-09-28T01:17:45.024Z,990.51
2022-09-28T01:24:04.972Z,990.49
2022-09-28T01:30:28.013Z,990.45
2022-09-28T01:36:47.985Z,990.43
2022-09-28T01:43:10.992Z,990.39
2022-09-28T01:49:30.996Z,990.37
2022-09-28T01:55:53.978Z,990.34
2022-09-28T02:02:14.033Z,990.3
2022-09-28T02:08:37.021Z,990.28
2022-09-28T02:14:56.995Z,990.24
2022-09-28T02:21:19.986Z,990.26
2022-09-28T02:27:40.014Z,990.26
2022-09-28T02:34:02.993Z,990.28
2022-09-28T02:40:23.038Z,990.3
2022-09-28T02:46:46.011Z,990.37
2022-09-28T02:53:05.996Z,990.37
2022-09-28T02:59:28.980Z,990.39
2022-09-28T03:05:49.000Z,990.39
2022-09-28T03:12:11.982Z,990.39
2022-09-28T03:18:31.967Z,990.41
2022-09-28T03:40:44.076Z,990.43
2022-09-28T03:47:06.978Z,990.45
2022-09-28T03:53:27.019Z,990.43
2022-09-28T03:59:50.000Z,990.41
2022-09-28T04:06:09.994Z,990.36
2022-09-28T04:12:33.007Z,990.39
2022-09-28T04:18:52.993Z,990.41
2022-09-28T04:25:16.010Z,990.41
2022-09-28T04:31:36.051Z,990.39
2022-09-28T04:37:59.040Z,990.43
2022-09-28T04:44:18.967Z,990.47
2022-09-28T04:50:41.990Z,990.49
2022-09-28T04:57:02.047Z,990.51
2022-09-28T05:03:24.993Z,990.57
2022-09-28T05:09:44.993Z,990.61
2022-09-28T05:16:08.057Z,990.65
2022-09-28T05:22:28.014Z,990.69
2022-09-28T05:28:50.978Z,990.67
2022-09-28T05:35:10.999Z,990.69
2022-09-28T05:41:34.026Z,990.69
2022-09-28T05:47:53.968Z,990.71
2022-09-28T05:54:17.241Z,990.73
2022-09-28T06:00:37.006Z,990.77
2022-09-28T06:07:00.001Z,990.77
2022-09-28T06:13:20.034Z,990.79
2022-09-28T06:19:42.991Z,990.83
2022-09-28T06:26:02.982Z,990.84
2022-09-28T06:32:26.037Z,990.86
2022-09-28T06:38:46.002Z,990.92
2022-09-28T06:45:09.062Z,990.98
2022-09-28T06:51:29.080Z,991.08
2022-09-28T06:57:52.002Z,991.14
2022-09-28T07:04:12.020Z,991.16
2022-09-28T07:10:35.004Z,991.26
2022-09-28T07:17:07.548Z,991.31
2022-09-28T07:23:19.730Z,991.37
2022-09-28T07:29:38.013Z,991.43
2022-09-28T07:36:01.052Z,991.51
2022-09-28T07:42:20.992Z,991.57
2022-09-28T07:48:44.053Z,991.61
2022-09-28T07:55:06.983Z,991.71
2022-09-28T08:01:27.085Z,991.77
2022-09-28T08:07:47.034Z,991.8
2022-09-28T08:14:10.062Z,991.88
2022-09-28T08:20:30.005Z,991.92
2022-09-28T08:26:53.004Z,991.98
2022-09-28T08:48:48.978Z,992.04
2022-09-28T08:55:06.992Z,992.08
2022-09-28T09:01:27.011Z,992.14
2022-09-28T09:07:50.024Z,992.2
2022-09-28T09:14:10.101Z,992.24
2022-09-28T09:20:32.984Z,992.29
2022-09-28T09:26:53.039Z,992.33
2022-09-28T09:33:15.982Z,992.35
2022-09-28T09:39:36.016Z,992.33
2022-09-28T09:45:59.126Z,992.39
2022-09-28T09:52:19.030Z,992.41
2022-09-28T09:58:42.001Z,992.43
2022-09-28T10:05:02.028Z,992.43
2022-09-28T10:11:25.033Z,992.47
2022-09-28T10:17:45.035Z,992.47
2022-09-28T10:24:08.019Z,992.49
2022-09-28T10:30:28.057Z,992.45
2022-09-28T10:36:50.996Z,992.51
2022-09-28T10:43:11.038Z,992.51
2022-09-28T10:49:34.055Z,992.53
2022-09-28T10:55:53.981Z,992.53
2022-09-28T11:02:17.051Z,992.55
2022-09-28T11:08:37.220Z,992.65
2022-09-28T11:15:00.328Z,992.65
2022-09-28T11:21:20.000Z,992.65
2022-09-28T11:27:42.979Z,992.63
2022-09-28T11:34:03.024Z,992.49
2022-09-28T11:40:26.065Z,992.47
2022-09-28T11:46:46.004Z,992.47
2022-09-28T11:53:08.983Z,992.47
2022-09-28T11:59:29.025Z,992.47
2022-09-28T12:05:51.983Z,992.47
2022-09-28T12:12:12.990Z,992.49
2022-09-28T12:18:36.037Z,992.55
2022-09-28T12:24:55.977Z,992.55
2022-09-28T12:31:19.192Z,992.53
2022-09-28T12:37:39.011Z,992.47
2022-09-28T12:44:01.978Z,992.49
2022-09-28T12:50:39.489Z,992.47
2022-09-28T12:56:45.046Z,992.49
2022-09-28T13:03:04.981Z,992.47
2022-09-28T13:09:27.988Z,992.47
2022-09-28T13:15:48.065Z,992.45
2022-09-28T13:22:10.985Z,992.47
2022-09-28T13:28:30.987Z,992.45
2022-09-28T13:34:54.038Z,992.41
2022-09-28T13:41:13.993Z,992.43
2022-09-28T14:04:31.007Z,992.47
2022-09-28T14:10:54.017Z,992.49
2022-09-28T14:17:13.993Z,992.51
2022-09-28T14:23:37.032Z,992.55
2022-09-28T14:29:57.166Z,992.53
2022-09-28T14:36:20.103Z,992.53
2022-09-28T14:42:40.090Z,992.51
2022-09-28T14:49:03.200Z,992.53
2022-09-28T14:55:23.199Z,992.53
2022-09-28T15:01:46.052Z,992.53
2022-09-28T15:08:05.980Z,992.49
2022-09-28T15:14:29.007Z,992.51
2022-09-28T15:20:49.008Z,992.53
2022-09-28T15:27:12.006Z,992.67
2022-09-28T15:33:31.979Z,992.67
2022-09-28T15:39:55.065Z,992.65
2022-09-28T15:46:15.051Z,992.69
2022-09-28T15:52:37.994Z,992.69
2022-09-28T15:58:58.053Z,992.77
2022-09-28T16:05:20.981Z,992.79
2022-09-28T16:11:41.054Z,992.81
2022-09-28T16:18:04.022Z,992.93
2022-09-28T16:24:24.183Z,993.02
2022-09-28T16:30:47.073Z,993.12
2022-09-28T16:37:07.034Z,993.2
2022-09-28T16:43:29.979Z,993.2
2022-09-28T16:49:50.008Z,993.3
2022-09-28T16:56:13.042Z,993.38
2022-09-28T17:02:46.067Z,993.46
2022-09-28T17:08:55.973Z,993.51
2022-09-28T17:15:16.008Z,993.53
2022-09-28T17:21:39.026Z,993.59
2022-09-28T17:27:58.964Z,993.65
2022-09-28T17:34:21.996Z,993.73
2022-09-28T17:40:42.018Z,993.79
2022-09-28T17:47:04.993Z,993.89
2022-09-28T17:53:24.996Z,993.96
2022-09-28T17:59:47.974Z,994.08
2022-09-28T18:06:07.978Z,994.12
2022-09-28T18:12:31.018Z,994.16
2022-09-28T18:18:50.998Z,994.2
2022-09-28T18:25:13.973Z,994.24
2022-09-28T18:31:34.043Z,994.28
2022-09-28T18:38:11.996Z,994.28
2022-09-28T18:44:31.990Z,994.3
2022-09-28T18:50:55.013Z,994.32
2022-09-28T19:14:36.004Z,994.4
2022-09-28T19:20:55.985Z,994.42
2022-09-28T19:27:19.004Z,994.43
2022-09-28T19:33:38.991Z,994.42
2022-09-28T19:40:02.006Z,994.45
2022-09-28T19:46:21.988Z,994.55
2022-09-28T19:52:45.250Z,994.61
2022-09-28T19:59:04.996Z,994.63
2022-09-28T20:05:28.003Z,994.71
2022-09-28T20:11:48.010Z,994.75
2022-09-28T20:18:10.985Z,994.79
2022-09-28T20:24:31.017Z,994.79
2022-09-28T20:30:54.061Z,994.79
2022-09-28T20:37:13.982Z,994.83
2022-09-28T20:43:37.013Z,994.85
2022-09-28T20:49:57.019Z,994.83
2022-09-28T20:56:20.010Z,994.85
2022-09-28T21:02:40.030Z,994.85
2022-09-28T21:09:03.001Z,994.85
2022-09-28T21:15:22.972Z,994.83
2022-09-28T21:21:45.983Z,994.87
2022-09-28T21:28:06.015Z,994.85
2022-09-28T21:34:28.994Z,994.81
2022-09-28T21:40:49.016Z,994.77
2022-09-28T21:47:12.021Z,994.77
2022-09-28T21:53:31.972Z,994.75
2022-09-28T21:59:54.976Z,994.79
2022-09-28T22:22:52.153Z,995
2022-09-28T22:29:11.977Z,995
2022-09-28T22:35:34.960Z,995
2022-09-28T22:41:55.024Z,995.04
2022-09-28T22:48:17.964Z,995
2022-09-28T22:54:37.991Z,994.96
2022-09-28T23:01:00.991Z,994.98
2022-09-28T23:07:21.004Z,994.98
2022-09-28T23:13:44.013Z,994.98
2022-09-28T23:20:04.007Z,994.98
2022-09-28T23:26:26.985Z,994.98
2022-09-28T23:32:46.971Z,994.94
2022-09-28T23:39:10.005Z,994.92
2022-09-28T23:45:29.990Z,994.92
2022-09-28T23:51:53.040Z,994.92
2022-09-28T23:58:13.013Z,994.89
